Mid Calder, United Kingdom
Current Conditions -  °F | °C
As of 8:50 PM on Tuesday 21 Oct 2014 (Local Time) from EGPH Reporting Station
Clear Clear  
Wind Chill: 37°   Ceiling: Unl
Heat Index: 43°   Visibility: 6mi
Dew Point: 34°   Wind: 12mph
Humidity: 70%   Direction: 260°W
Pressure: 29.88"   Gusts: NA
Location:  55.89°N, 3.48°W
Report Text: EGPH 211950Z 26010KT CAVOK 06/01 Q1012
Loading
Personal Weather Stations






























Interactive Weather Map New forecast layout! Learn more

10-Day Weather Forecast

Advertisements
Track Severe Weather on mobile